Brainerd Lakes Regional Airport
KBRD : now visible

Airfield :











YOU CAN JOIN US ON...

 
LOGIN :

Register | Disclaimer

   EN    FR    IT 

 









Legend :    VFR   Marginal VFR   IFR   Intensive IFR   Very Intensive IFR
Visi :
Ceiling :
>= 8 km
>= 3000ft
5 to 8 km
1000 to 3000 ft
1500m to 5 km
500 to 1000 ft
800 to 1500m
200 to 500 ft
< 800m
< 200 ft
Symbols :   Thunderstorms  Fog  Heavy snow  Heavy precipitations  Wind > 20 kt






- Airport Elevation : 1232 ft


KBRD - Brainerd Lakes Regional

CURRENT METAR :
  • 041353Z AUTO 21005KT 9SM CLR M13/M17 A2996 RMK AO2 SLP178 T11331167

EXPIRED METARs :
  • 041253Z AUTO 21005KT 10SM CLR M13/M17 A2996 RMK AO2 SLP177 T11331167
  • 041153Z AUTO 20004KT 10SM CLR M15/M18 A2998 RMK AO2 SLP184 I6000 T11501178 11133 21172 58024

TAF KBRD
Valid from the 04 at 12:00 until the 05 at 12:00 UTC


041131Z 0412/0512 22007KT P6SM SKC
FM041400 23009G15KT P6SM FEW100
FM041800 23015G25KT P6SM FEW100
FM042300 24013G22KT P6SM SCT100 WS016/27040KT
FM050200 26007KT P6SM SCT050
KZMP FIR / North America



MET'MAP, your aeronautical weather chart ! - Copyright ORBIFLY December 2007 - Disclaimer

ORBIFLY MET'MAP TEAM :

Programming & Development : Alexandra Zaïnal
Original concept : Baudouin d'Aumeries
Technical & hardware support : Manuel Goepfert
Assistance : Marc-Olivier Méhu




SOURCES & CREDITS :

   NOAA       Earth
Advisory